Time;durP1;ratioP1;P1;durP2;ratioP2;P2;SDS_P1;SDS_P2;PMS_P1;PMS_P2;Temp;Humidity;BMP_temperature;BMP_pressure;BME280_temperature;BME280_humidity;BME280_pressure;Samples;Min_cycle;Max_cycle;Signal;HPM_P1;HPM_P2
2022/05/28 00:01:04;;;;;;;1.42;1.33;;;14.30;99.90;;;;;;5025407;28;20769;-61
2022/05/28 00:03:32;;;;;;;2.13;1.63;;;14.30;99.90;;;;;;5025804;28;20124;-60
2022/05/28 00:05:59;;;;;;;4.47;1.73;;;14.30;99.90;;;;;;5025923;28;20048;-61
2022/05/28 00:08:26;;;;;;;2.67;1.70;;;14.30;99.90;;;;;;5026710;28;20098;-61
2022/05/28 00:10:57;;;;;;;2.88;1.55;;;14.20;99.90;;;;;;5025484;28;20594;-62
2022/05/28 00:13:25;;;;;;;1.63;1.30;;;14.20;99.90;;;;;;5026414;28;20063;-61
2022/05/28 00:15:52;;;;;;;6.60;2.28;;;14.20;99.90;;;;;;5018041;28;20038;-60
2022/05/28 00:18:19;;;;;;;1.95;1.45;;;14.20;99.90;;;;;;5018323;28;20129;-60
2022/05/28 00:20:46;;;;;;;3.83;1.70;;;14.10;99.90;;;;;;5011702;28;20524;-60
2022/05/28 00:23:13;;;;;;;2.72;1.27;;;14.10;99.90;;;;;;5006298;28;20056;-61
2022/05/28 00:25:40;;;;;;;5.90;2.15;;;14.10;99.90;;;;;;5005352;28;20045;-60
2022/05/28 00:28:07;;;;;;;2.28;1.88;;;14.10;99.90;;;;;;5003780;28;20413;-61
2022/05/28 00:30:33;;;;;;;1.67;1.58;;;14.10;99.90;;;;;;5005502;28;20068;-61
2022/05/28 00:33:00;;;;;;;;;;;14.10;99.90;;;;;;5005363;28;20056;-61
2022/05/28 00:35:27;;;;;;;1.60;1.50;;;14.10;99.90;;;;;;5005486;28;19925;-60
2022/05/28 00:37:54;;;;;;;2.20;2.00;;;14.00;99.90;;;;;;5004632;28;20052;-61
2022/05/28 00:40:22;;;;;;;;;;;14.10;99.90;;;;;;5007585;28;20046;-61
2022/05/28 00:42:49;;;;;;;2.35;1.65;;;14.00;99.90;;;;;;5024510;28;19931;-60
2022/05/28 00:45:16;;;;;;;1.85;1.60;;;14.00;99.90;;;;;;5025213;28;20807;-61
2022/05/28 00:47:50;;;;;;;2.22;2.03;;;14.10;99.90;;;;;;5024456;28;20809;-61
2022/05/28 00:50:19;;;;;;;3.22;2.10;;;14.10;99.90;;;;;;5004942;28;20100;-60
2022/05/28 00:52:46;;;;;;;2.75;2.10;;;14.10;99.90;;;;;;5005625;28;20049;-61
2022/05/28 00:55:15;;;;;;;2.50;2.30;;;14.10;99.90;;;;;;5004149;28;20057;-61
2022/05/28 00:57:44;;;;;;;2.47;2.15;;;14.10;99.90;;;;;;5004166;28;20454;-61
2022/05/28 01:00:14;;;;;;;4.80;1.98;;;14.10;99.90;;;;;;5004857;28;20045;-61
2022/05/28 01:03:13;;;;;;;2.75;1.60;;;14.00;99.90;;;;;;5005065;28;20107;-60
2022/05/28 01:06:07;;;;;;;3.00;1.98;;;14.00;99.90;;;;;;5023189;28;20041;-61
2022/05/28 01:08:58;;;;;;;1.75;1.65;;;14.00;99.90;;;;;;5023137;28;20057;-62
2022/05/28 01:11:47;;;;;;;2.17;1.63;;;14.00;99.90;;;;;;5024127;28;20046;-60
2022/05/28 01:14:18;;;;;;;3.50;2.20;;;14.00;99.90;;;;;;5024571;28;20056;-61
2022/05/28 01:16:50;;;;;;;2.35;2.05;;;14.00;99.90;;;;;;5018349;28;20041;-66
2022/05/28 01:19:38;;;;;;;5.47;1.95;;;14.00;99.90;;;;;;5006110;28;20050;-63
2022/05/28 01:22:32;;;;;;;4.35;2.05;;;14.00;99.90;;;;;;5005430;28;20045;-66
2022/05/28 01:25:37;;;;;;;3.13;1.55;;;13.90;99.90;;;;;;5004437;28;20423;-66
2022/05/28 01:28:09;;;;;;;2.67;1.77;;;13.90;99.90;;;;;;5003615;28;20041;-66
2022/05/28 01:30:38;;;;;;;3.05;1.50;;;13.90;99.90;;;;;;5003822;28;20048;-65
2022/05/28 01:33:07;;;;;;;2.13;1.92;;;13.90;99.90;;;;;;5005384;28;20112;-66
2022/05/28 01:35:36;;;;;;;1.73;1.63;;;13.90;99.90;;;;;;5005457;28;20041;-65
2022/05/28 01:38:06;;;;;;;3.22;1.58;;;13.90;99.90;;;;;;5004155;28;20516;-66
2022/05/28 01:40:34;;;;;;;1.67;1.58;;;13.90;99.90;;;;;;5007860;28;20055;-65
2022/05/28 01:43:07;;;;;;;2.65;1.73;;;13.80;99.90;;;;;;5023569;28;20107;-66
2022/05/28 01:45:37;;;;;;;1.73;1.63;;;13.80;99.90;;;;;;5024674;28;20044;-65
2022/05/28 01:48:06;;;;;;;2.10;1.50;;;13.80;99.90;;;;;;5022877;28;20052;-66
2022/05/28 01:50:37;;;;;;;1.98;1.80;;;13.80;99.90;;;;;;5024733;28;20045;-63
2022/05/28 01:53:08;;;;;;;4.63;1.50;;;13.80;99.90;;;;;;5023128;28;20040;-65
2022/05/28 01:55:42;;;;;;;1.63;1.30;;;13.70;99.90;;;;;;5024932;28;20475;-65
2022/05/28 01:58:08;;;;;;;7.63;2.28;;;13.70;99.90;;;;;;5022650;28;20938;-66
2022/05/28 02:00:35;;;;;;;3.13;1.60;;;13.70;99.90;;;;;;5024010;28;20052;-65
2022/05/28 02:03:03;;;;;;;;;;;13.60;99.90;;;;;;5025468;28;20045;-65
2022/05/28 02:05:30;;;;;;;1.70;1.60;;;13.60;99.90;;;;;;5023638;28;19924;-66
2022/05/28 02:07:57;;;;;;;2.58;1.88;;;13.60;99.90;;;;;;5021284;28;20138;-65
2022/05/28 02:10:24;;;;;;;2.65;1.65;;;13.60;99.90;;;;;;5023675;28;20880;-65
2022/05/28 02:13:01;;;;;;;1.58;1.48;;;13.60;99.90;;;;;;5023591;28;20912;-65
2022/05/28 02:15:53;;;;;;;1.60;1.50;;;13.50;99.90;;;;;;5023491;28;20469;-65
2022/05/28 02:18:49;;;;;;;1.55;1.40;;;13.50;99.90;;;;;;5007773;28;20837;-65
2022/05/28 02:21:42;;;;;;;1.48;1.38;;;13.50;99.90;;;;;;5003065;28;20089;-65
2022/05/28 02:24:25;;;;;;;3.10;2.25;;;13.50;99.90;;;;;;5004139;28;20045;-66
2022/05/28 02:27:02;;;;;;;4.32;2.17;;;13.50;99.90;;;;;;5002641;28;20053;-66
2022/05/28 02:29:32;;;;;;;2.42;2.17;;;13.50;99.90;;;;;;5003820;28;20065;-66
2022/05/28 02:31:59;;;;;;;2.88;1.73;;;13.50;99.90;;;;;;5004358;28;20740;-65
2022/05/28 02:34:26;;;;;;;;;;;13.50;99.90;;;;;;5005094;28;20526;-65
2022/05/28 02:36:53;;;;;;;3.13;1.90;;;13.50;99.90;;;;;;5002679;28;19925;-66
2022/05/28 02:39:19;;;;;;;2.53;1.77;;;13.40;99.90;;;;;;5003726;28;20092;-65
2022/05/28 02:41:46;;;;;;;;;;;13.40;99.90;;;;;;5018143;28;20167;-64
2022/05/28 02:44:13;;;;;;;3.28;1.75;;;13.40;99.90;;;;;;5026486;28;20002;-65
2022/05/28 02:46:41;;;;;;;2.38;1.70;;;13.40;99.90;;;;;;5028045;28;20073;-64
2022/05/28 02:49:07;;;;;;;1.92;1.73;;;13.40;99.90;;;;;;5027163;28;20057;-65
2022/05/28 02:51:34;;;;;;;;;;;13.30;99.90;;;;;;5027132;28;20187;-65
2022/05/28 02:54:01;;;;;;;5.22;1.75;;;13.30;99.90;;;;;;5009637;28;19933;-66
2022/05/28 02:56:28;;;;;;;2.40;1.80;;;13.30;99.90;;;;;;5027310;28;20156;-66
2022/05/28 02:58:54;;;;;;;3.08;1.58;;;13.30;99.90;;;;;;5026364;28;20052;-65
2022/05/28 03:01:29;;;;;;;;;;;13.30;99.90;;;;;;5027230;28;20154;-65
2022/05/28 03:03:56;;;;;;;1.63;1.35;;;13.30;99.90;;;;;;5027081;28;20019;-66
2022/05/28 03:06:23;;;;;;;7.53;1.73;;;13.30;99.90;;;;;;5026641;28;20053;-67
2022/05/28 03:08:51;;;;;;;2.97;1.70;;;13.30;99.90;;;;;;5026848;28;20048;-66
2022/05/28 03:11:18;;;;;;;3.35;2.22;;;13.30;99.90;;;;;;5026388;28;20773;-67
2022/05/28 03:13:45;;;;;;;1.88;1.63;;;13.20;99.90;;;;;;5026299;28;20049;-66
2022/05/28 03:16:13;;;;;;;3.75;2.22;;;13.20;99.90;;;;;;5027880;28;20094;-64
2022/05/28 03:18:40;;;;;;;2.15;1.95;;;13.10;99.90;;;;;;5020235;28;20085;-66
2022/05/28 03:21:07;;;;;;;;;;;13.10;99.90;;;;;;5009859;28;20107;-66
2022/05/28 03:23:34;;;;;;;2.33;1.80;;;13.10;99.90;;;;;;5022286;28;19924;-65
2022/05/28 03:26:19;;;;;;;;;;;13.10;99.90;;;;;;5006397;28;20052;-65
2022/05/28 03:28:49;;;;;;;2.63;2.08;;;13.10;99.90;;;;;;5004744;28;19965;-65
2022/05/28 03:31:16;;;;;;;2.75;1.75;;;13.10;99.90;;;;;;5007259;28;20050;-66
2022/05/28 03:33:43;;;;;;;1.90;1.70;;;13.10;99.90;;;;;;5006839;28;20657;-67
2022/05/28 03:36:10;;;;;;;;;;;13.10;99.90;;;;;;5007489;28;20045;-65
2022/05/28 03:38:37;;;;;;;2.38;1.45;;;13.10;99.90;;;;;;5006818;28;20015;-66
2022/05/28 03:41:08;;;;;;;2.08;1.85;;;13.10;99.90;;;;;;5014593;28;20041;-66
2022/05/28 03:43:35;;;;;;;3.33;2.13;;;13.10;99.90;;;;;;5024920;28;20045;-66
2022/05/28 03:46:03;;;;;;;2.53;2.33;;;13.10;99.90;;;;;;5026057;28;20124;-66
2022/05/28 03:48:32;;;;;;;3.72;2.22;;;13.10;99.90;;;;;;5026061;28;20045;-66
2022/05/28 03:50:59;;;;;;;4.25;2.50;;;13.10;99.90;;;;;;5026083;28;20141;-66
2022/05/28 03:53:26;;;;;;;5.85;2.63;;;13.10;99.90;;;;;;5026781;28;20128;-64
2022/05/28 03:55:53;;;;;;;2.17;1.98;;;13.10;99.90;;;;;;5026157;28;20057;-65
2022/05/28 03:58:19;;;;;;;3.15;2.40;;;13.10;99.90;;;;;;5022940;28;20041;-66
2022/05/28 04:00:46;;;;;;;;;;;13.10;99.90;;;;;;5027100;28;20511;-66
2022/05/28 04:03:13;;;;;;;2.45;2.00;;;13.10;99.90;;;;;;5024724;28;19924;-66
2022/05/28 04:05:40;;;;;;;8.05;3.00;;;13.10;99.90;;;;;;5024075;28;20620;-67
2022/05/28 04:08:07;;;;;;;;;;;13.10;99.90;;;;;;5026399;28;20049;-66
2022/05/28 04:10:34;;;;;;;2.55;2.20;;;13.10;99.90;;;;;;5024993;28;19928;-66
2022/05/28 04:13:00;;;;;;;5.13;2.90;;;13.10;99.90;;;;;;5024381;28;20086;-66
2022/05/28 04:15:28;;;;;;;4.07;2.50;;;13.10;99.90;;;;;;5025755;28;20517;-66
2022/05/28 04:17:55;;;;;;;3.05;2.50;;;13.10;99.90;;;;;;5022649;28;20037;-66
2022/05/28 04:20:22;;;;;;;2.28;2.05;;;13.10;99.90;;;;;;5012578;28;20073;-67
2022/05/28 04:22:49;;;;;;;3.90;2.55;;;13.10;99.90;;;;;;5004941;28;20061;-66
2022/05/28 04:25:16;;;;;;;2.75;2.15;;;13.10;99.90;;;;;;5006341;28;20508;-67
2022/05/28 04:27:43;;;;;;;3.55;2.60;;;13.10;99.90;;;;;;5004917;28;20919;-67
2022/05/28 04:30:11;;;;;;;3.25;2.80;;;13.10;99.90;;;;;;5005290;28;20123;-65
2022/05/28 04:32:38;;;;;;;3.50;2.53;;;13.00;99.90;;;;;;5005629;28;20301;-66
2022/05/28 04:35:04;;;;;;;;;;;13.10;99.90;;;;;;5006739;28;20056;-66
2022/05/28 04:37:31;;;;;;;5.63;2.90;;;13.10;99.90;;;;;;5005460;28;20645;-66
2022/05/28 04:39:58;;;;;;;;;;;13.10;99.90;;;;;;5006691;28;20050;-66
2022/05/28 04:42:25;;;;;;;4.90;2.92;;;13.00;99.90;;;;;;5022460;28;19931;-66
2022/05/28 04:44:51;;;;;;;;;;;13.00;99.90;;;;;;5025536;28;20138;-66
2022/05/28 04:47:18;;;;;;;2.67;2.40;;;13.00;99.90;;;;;;5025202;28;19928;-66
2022/05/28 04:49:45;;;;;;;4.95;4.03;;;13.00;99.90;;;;;;5024905;28;20115;-65
2022/05/28 04:52:12;;;;;;;4.63;3.35;;;13.00;99.90;;;;;;5024794;28;20127;-66
2022/05/28 04:54:38;;;;;;;3.25;2.63;;;13.00;99.90;;;;;;5025717;28;20045;-66
2022/05/28 04:57:05;;;;;;;;;;;13.00;99.90;;;;;;5024278;28;20044;-66
2022/05/28 04:59:32;;;;;;;4.00;2.75;;;13.00;99.90;;;;;;5024300;28;20436;-65
2022/05/28 05:01:59;;;;;;;;;;;13.00;99.90;;;;;;5023681;28;20061;-65
2022/05/28 05:04:25;;;;;;;4.07;2.80;;;13.00;99.90;;;;;;5025236;28;19976;-65
2022/05/28 05:06:52;;;;;;;;;;;13.00;99.90;;;;;;5022545;28;21063;-67
2022/05/28 05:09:19;;;;;;;4.50;2.90;;;12.90;99.90;;;;;;5025636;28;20018;-66
2022/05/28 05:11:46;;;;;;;;;;;13.00;99.90;;;;;;5024996;28;20119;-67
2022/05/28 05:14:13;;;;;;;5.65;3.33;;;13.00;99.90;;;;;;5023355;28;19924;-53
2022/05/28 05:16:39;;;;;;;3.85;3.10;;;13.00;99.90;;;;;;5023909;28;20044;-57
2022/05/28 05:19:06;;;;;;;5.90;3.45;;;13.00;99.90;;;;;;5023266;28;20314;-55
2022/05/28 05:21:33;;;;;;;;;;;13.00;99.90;;;;;;5020769;28;20061;-54
2022/05/28 05:24:00;;;;;;;7.25;3.25;;;13.00;99.90;;;;;;5021658;28;20234;-55
2022/05/28 05:26:27;;;;;;;;;;;12.90;99.90;;;;;;5022893;28;20044;-62
2022/05/28 05:28:54;;;;;;;3.92;2.92;;;13.00;99.90;;;;;;5019985;28;19978;-62
2022/05/28 05:31:20;;;;;;;3.38;2.65;;;13.00;99.90;;;;;;5004199;28;20052;-61
2022/05/28 05:33:47;;;;;;;;;;;13.00;99.90;;;;;;5019140;28;20519;-61
2022/05/28 05:36:14;;;;;;;4.88;3.17;;;12.90;99.90;;;;;;5022004;28;19924;-61
2022/05/28 05:38:42;;;;;;;5.63;3.72;;;12.90;99.90;;;;;;5022485;28;20044;-62
2022/05/28 05:41:08;;;;;;;;;;;12.90;99.90;;;;;;5022968;28;20060;-61
2022/05/28 05:43:35;;;;;;;3.70;2.97;;;12.90;99.90;;;;;;5016464;28;20045;-61
2022/05/28 05:46:03;;;;;;;;;;;12.90;99.90;;;;;;5023012;28;20699;-60
2022/05/28 05:48:30;;;;;;;4.28;2.80;;;12.90;99.90;;;;;;5021754;28;20299;-61
2022/05/28 05:51:08;;;;;;;4.45;2.92;;;12.90;99.90;;;;;;5023467;28;20119;-61
2022/05/28 05:53:35;;;;;;;3.25;2.53;;;12.90;99.90;;;;;;5024181;28;20068;-59
2022/05/28 05:56:03;;;;;;;7.65;4.15;;;12.90;99.90;;;;;;5023951;28;20761;-58
2022/05/28 05:58:30;;;;;;;15.35;4.05;;;12.90;99.90;;;;;;5020504;28;20110;-57
2022/05/28 06:00:57;;;;;;;7.47;3.63;;;12.90;99.90;;;;;;5021280;28;20067;-59
2022/05/28 06:03:23;;;;;;;;;;;12.90;99.90;;;;;;5023398;28;20893;-60
2022/05/28 06:05:58;;;;;;;5.03;3.53;;;12.80;99.90;;;;;;5023057;28;19931;-58
2022/05/28 06:08:26;;;;;;;9.18;3.65;;;12.80;99.90;;;;;;5021401;28;20056;-61
2022/05/28 06:10:53;;;;;;;7.05;3.78;;;12.80;99.90;;;;;;5021281;28;20080;-60
2022/05/28 06:13:20;;;;;;;;;;;12.70;99.90;;;;;;5017411;28;20855;-56
2022/05/28 06:15:46;;;;;;;3.47;2.67;;;12.80;99.90;;;;;;5022661;28;20021;-56
2022/05/28 06:18:14;;;;;;;;;;;12.80;99.90;;;;;;5021979;28;20547;-60
2022/05/28 06:20:40;;;;;;;10.50;4.28;;;12.70;99.90;;;;;;5021791;28;19924;-61
2022/05/28 06:23:08;;;;;;;;;;;12.80;99.90;;;;;;5016724;28;20049;-58
2022/05/28 06:25:38;;;;;;;9.83;4.40;;;12.80;99.90;;;;;;5002999;28;19932;-61
2022/05/28 06:28:06;;;;;;;9.70;4.40;;;12.80;99.90;;;;;;5000491;28;20049;-57
2022/05/28 06:30:34;;;;;;;4.13;3.25;;;12.80;99.90;;;;;;5022496;28;20088;-57
2022/05/28 06:33:01;;;;;;;7.72;3.65;;;12.90;99.90;;;;;;5022873;28;20055;-57
2022/05/28 06:35:30;;;;;;;5.97;3.90;;;12.90;99.90;;;;;;5019658;28;20041;-58
2022/05/28 06:37:57;;;;;;;6.05;4.05;;;13.00;99.90;;;;;;5019057;28;20127;-58
2022/05/28 06:40:24;;;;;;;6.07;3.40;;;13.00;99.90;;;;;;5022640;28;20060;-58
2022/05/28 06:42:51;;;;;;;11.52;5.15;;;13.10;99.90;;;;;;5020793;28;20077;-58
2022/05/28 06:45:18;;;;;;;6.40;4.25;;;13.10;99.90;;;;;;5022750;28;20052;-60
2022/05/28 06:47:46;;;;;;;5.47;3.88;;;13.10;99.90;;;;;;5021711;28;20466;-60
2022/05/28 06:53:01;;;;;;;11.10;4.75;;;13.20;99.90;;;;;;5003280;28;20045;-60
2022/05/28 06:55:28;;;;;;;;;;;;;;;;;;5002592;28;20053;-58
2022/05/28 06:57:54;;;;;;;6.03;4.27;;;13.30;99.90;;;;;;4997732;28;19921;-61
2022/05/28 07:00:21;;;;;;;;;;;13.30;99.90;;;;;;5021909;28;20546;-60
2022/05/28 07:02:48;;;;;;;4.05;3.58;;;13.30;99.90;;;;;;5022458;28;19934;-59
2022/05/28 07:05:15;;;;;;;;;;;13.40;99.90;;;;;;5022291;28;20041;-58
2022/05/28 07:07:42;;;;;;;8.77;4.40;;;13.40;99.90;;;;;;5021305;28;19990;-58
2022/05/28 07:10:10;;;;;;;6.78;4.05;;;13.50;99.90;;;;;;5021185;28;20056;-63
2022/05/28 07:12:37;;;;;;;9.32;5.55;;;13.60;99.90;;;;;;5018985;28;20090;-61
2022/05/28 07:15:05;;;;;;;8.40;4.82;;;13.70;99.90;;;;;;5019487;28;20049;-60
2022/05/28 07:17:32;;;;;;;10.43;5.57;;;13.80;99.90;;;;;;5019472;28;20067;-63
2022/05/28 07:19:59;;;;;;;;;;;13.80;99.90;;;;;;5023602;28;20049;-64
2022/05/28 07:22:26;;;;;;;10.85;5.63;;;13.90;99.90;;;;;;5018724;28;19932;-61
2022/05/28 07:24:53;;;;;;;11.27;5.47;;;13.90;99.90;;;;;;5003827;28;20041;-59
2022/05/28 07:27:20;;;;;;;;;;;13.80;99.90;;;;;;5016053;28;20460;-60
2022/05/28 07:29:47;;;;;;;6.43;5.60;;;13.80;99.90;;;;;;5024081;28;20446;-61
2022/05/28 07:32:13;;;;;;;11.60;5.65;;;13.70;99.90;;;;;;5028596;28;20052;-61
2022/05/28 07:34:40;;;;;;;;;;;13.70;99.90;;;;;;5033217;28;20882;-57
2022/05/28 07:37:07;;;;;;;7.30;5.20;;;13.60;99.90;;;;;;5030717;28;19925;-58
2022/05/28 07:39:34;;;;;;;;;;;13.50;99.90;;;;;;5029318;28;20040;-61
2022/05/28 07:42:03;;;;;;;8.82;5.43;;;13.50;99.90;;;;;;5026627;28;19931;-60
2022/05/28 07:44:30;;;;;;;11.82;5.72;;;13.40;99.90;;;;;;5011940;28;20040;-57
2022/05/28 07:46:57;;;;;;;8.00;5.38;;;13.40;99.90;;;;;;5027209;28;20141;-57
2022/05/28 07:49:24;;;;;;;11.32;6.43;;;13.30;99.90;;;;;;5027800;28;20811;-56
2022/05/28 07:51:51;;;;;;;;;;;13.30;99.90;;;;;;5026779;28;20056;-57
2022/05/28 07:54:17;;;;;;;10.68;4.63;;;13.30;99.90;;;;;;5028617;28;20340;-57
2022/05/28 07:56:44;;;;;;;;;;;13.40;99.90;;;;;;5026820;28;20127;-57
2022/05/28 07:59:11;;;;;;;24.40;10.50;;;13.40;99.90;;;;;;5009463;28;20011;-59
2022/05/28 08:01:40;;;;;;;9.77;6.05;;;13.50;99.90;;;;;;5007840;28;20057;-60
2022/05/28 08:04:08;;;;;;;9.80;5.30;;;13.50;99.90;;;;;;5013837;28;20047;-59
2022/05/28 08:06:35;;;;;;;10.57;5.75;;;13.60;99.90;;;;;;5028210;28;20107;-60
2022/05/28 08:09:03;;;;;;;8.90;5.47;;;13.70;99.90;;;;;;5026042;28;20122;-61
2022/05/28 08:11:31;;;;;;;8.88;5.07;;;13.80;99.90;;;;;;5027843;28;20713;-60
2022/05/28 08:13:57;;;;;;;8.73;5.38;;;13.90;99.90;;;;;;5026078;28;20045;-61
2022/05/28 08:16:31;;;;;;;8.93;5.45;;;14.10;99.90;;;;;;5027648;28;20037;-60
2022/05/28 08:18:58;;;;;;;8.82;5.32;;;14.20;99.90;;;;;;5026606;28;20866;-60
2022/05/28 08:24:10;;;;;;;9.27;5.00;;;14.50;99.90;;;;;;5027856;28;20043;-60
2022/05/28 08:26:38;;;;;;;;;;;14.70;99.90;;;;;;5027503;28;20072;-58
2022/05/28 08:29:06;;;;;;;7.97;4.40;;;14.80;99.90;;;;;;5026345;28;19925;-58
2022/05/28 08:31:32;;;;;;;10.88;5.47;;;15.00;99.90;;;;;;5026672;28;20052;-55
2022/05/28 08:34:00;;;;;;;6.75;5.13;;;15.10;99.90;;;;;;5025190;28;20060;-56
2022/05/28 08:36:26;;;;;;;;;;;15.20;99.90;;;;;;5028552;28;20052;-60
2022/05/28 08:38:53;;;;;;;10.48;5.35;;;15.40;99.90;;;;;;5024936;28;19955;-56
2022/05/28 08:41:24;;;;;;;13.55;4.93;;;15.50;99.90;;;;;;5026882;28;20049;-56
2022/05/28 08:44:18;;;;;;;10.63;4.43;;;15.60;99.90;;;;;;5020827;28;20041;-57
2022/05/28 08:46:54;;;;;;;8.35;4.43;;;15.70;99.90;;;;;;5010566;28;20056;-60
2022/05/28 08:49:26;;;;;;;10.57;4.45;;;16.00;99.90;;;;;;5020502;28;20056;-55
2022/05/28 08:52:03;;;;;;;11.93;5.35;;;16.20;99.90;;;;;;5027333;28;20834;-58
2022/05/28 08:54:36;;;;;;;10.18;4.57;;;16.50;99.90;;;;;;5026413;28;20055;-57
2022/05/28 08:57:11;;;;;;;11.75;4.70;;;16.60;99.90;;;;;;5026051;28;20040;-56
2022/05/28 09:00:08;;;;;;;8.02;4.60;;;16.60;99.90;;;;;;5026297;28;20049;-55
2022/05/28 09:02:46;;;;;;;10.33;4.87;;;16.70;99.90;;;;;;5002834;28;20060;-55
2022/05/28 09:05:35;;;;;;;8.50;4.40;;;16.60;99.90;;;;;;5025931;28;20074;-56
2022/05/28 09:08:05;;;;;;;8.07;3.88;;;16.50;99.90;;;;;;5022606;28;20415;-59
2022/05/28 09:10:39;;;;;;;11.05;4.30;;;16.40;99.90;;;;;;5024829;28;20045;-57
2022/05/28 09:13:19;;;;;;;6.13;3.30;;;16.40;99.90;;;;;;5026068;28;20041;-56
2022/05/28 09:15:46;;;;;;;14.90;4.43;;;16.40;99.90;;;;;;5026773;28;20040;-56
2022/05/28 09:18:15;;;;;;;8.73;4.45;;;16.40;99.90;;;;;;5023047;28;20112;-55
2022/05/28 09:20:46;;;;;;;13.85;4.97;;;16.40;99.90;;;;;;5024697;28;20041;-59
2022/05/28 09:23:13;;;;;;;13.98;4.28;;;16.30;99.90;;;;;;5026046;28;20052;-56
2022/05/28 09:25:43;;;;;;;8.73;4.50;;;16.30;99.90;;;;;;5027099;28;20284;-58
2022/05/28 09:28:39;;;;;;;8.55;4.20;;;16.20;99.90;;;;;;5024884;28;20052;-57
2022/05/28 09:31:26;;;;;;;8.13;4.68;;;16.20;99.90;;;;;;5023384;28;20057;-57
2022/05/28 09:34:08;;;;;;;6.93;4.17;;;16.20;99.90;;;;;;5020950;28;20054;-57
2022/05/28 09:36:56;;;;;;;10.85;4.57;;;16.20;99.90;;;;;;5027395;28;21037;-56
2022/05/28 09:40:14;;;;;;;7.95;4.18;;;16.10;99.90;;;;;;5025249;28;20041;-57
2022/05/28 09:42:40;;;;;;;9.15;4.05;;;16.10;99.90;;;;;;4983107;28;20057;-54
2022/05/28 09:45:35;;;;;;;10.65;4.00;;;16.10;99.90;;;;;;5003658;28;20041;-62
2022/05/28 09:48:02;;;;;;;8.10;3.63;;;16.10;99.90;;;;;;5023878;28;20040;-62
2022/05/28 09:50:39;;;;;;;9.00;4.55;;;16.20;99.90;;;;;;5026234;28;20088;-60
2022/05/28 09:56:17;;;;;;;11.68;4.15;;;16.40;99.90;;;;;;5025571;28;21025;-60
2022/05/28 09:58:44;;;;;;;7.25;4.35;;;16.40;99.90;;;;;;5023149;28;20538;-60
2022/05/28 10:01:19;;;;;;;10.50;4.85;;;16.50;99.90;;;;;;5023628;28;20106;-58
2022/05/28 10:06:34;;;;;;;6.87;3.73;;;16.60;99.90;;;;;;5025644;28;20049;-59
2022/05/28 10:09:12;;;;;;;9.70;5.22;;;16.50;99.90;;;;;;5024364;28;21130;-57
2022/05/28 10:11:53;;;;;;;6.80;4.03;;;16.50;99.90;;;;;;5025878;28;20255;-60
2022/05/28 10:14:20;;;;;;;11.25;4.13;;;16.40;99.90;;;;;;5024249;28;20877;-59
2022/05/28 10:16:48;;;;;;;7.82;3.70;;;16.40;99.90;;;;;;5022952;28;20041;-60
2022/05/28 10:19:23;;;;;;;9.35;4.20;;;16.30;99.90;;;;;;5024603;28;20037;-58
2022/05/28 10:21:52;;;;;;;8.88;3.97;;;16.30;99.90;;;;;;5025112;28;20049;-58
2022/05/28 10:24:22;;;;;;;13.85;4.65;;;16.50;99.90;;;;;;5022729;28;20114;-59
2022/05/28 10:26:51;;;;;;;10.95;4.32;;;16.70;99.90;;;;;;5023441;28;20076;-60
2022/05/28 10:29:24;;;;;;;9.43;4.30;;;17.00;99.90;;;;;;5023157;28;20145;-60
2022/05/28 10:31:52;;;;;;;9.43;3.95;;;17.30;99.90;;;;;;5024498;28;20582;-58
2022/05/28 10:34:28;;;;;;;7.90;3.90;;;17.80;99.90;;;;;;5024119;28;20040;-58
2022/05/28 10:37:12;;;;;;;9.13;4.33;;;18.30;99.90;;;;;;5023572;28;20045;-59
2022/05/28 10:39:40;;;;;;;8.07;4.22;;;18.70;99.90;;;;;;5025853;28;20431;-57
2022/05/28 10:42:12;;;;;;;7.72;3.55;;;19.10;96.20;;;;;;5024699;28;20099;-55
2022/05/28 10:44:41;;;;;;;7.72;3.50;;;19.10;93.40;;;;;;5023642;28;20087;-56
2022/05/28 10:47:11;;;;;;;10.85;3.58;;;19.40;94.20;;;;;;5006026;28;20069;-57
2022/05/28 10:49:54;;;;;;;6.32;2.85;;;19.60;96.80;;;;;;5025357;28;20565;-62
2022/05/28 10:52:41;;;;;;;7.57;3.72;;;19.80;95.50;;;;;;5031725;28;20104;-65
2022/05/28 10:55:28;;;;;;;5.72;3.15;;;19.90;89.70;;;;;;5033162;28;20045;-63
2022/05/28 10:58:12;;;;;;;7.70;3.17;;;19.80;89.60;;;;;;5033597;28;20076;-54
2022/05/28 11:01:00;;;;;;;4.32;2.80;;;19.60;86.10;;;;;;5034786;28;21052;-58
2022/05/28 11:04:09;;;;;;;11.52;3.78;;;19.20;84.00;;;;;;5037652;28;20048;-56
2022/05/28 11:07:14;;;;;;;8.27;3.22;;;18.80;84.80;;;;;;5038736;28;20052;-56
2022/05/28 11:10:15;;;;;;;8.00;3.17;;;18.50;90.20;;;;;;5005248;28;20064;-57
2022/05/28 11:13:12;;;;;;;12.50;3.75;;;18.30;90.40;;;;;;5019168;28;20045;-57
2022/05/28 11:16:05;;;;;;;6.47;3.40;;;18.10;91.70;;;;;;5019234;28;20058;-57
2022/05/28 11:18:44;;;;;;;5.90;2.83;;;18.00;92.00;;;;;;5017591;28;20042;-56
2022/05/28 11:21:14;;;;;;;7.63;3.70;;;17.80;94.10;;;;;;5018759;28;20041;-56
2022/05/28 11:24:09;;;;;;;13.23;4.05;;;17.90;96.10;;;;;;5019384;28;20053;-56
2022/05/28 11:27:12;;;;;;;6.25;3.33;;;17.90;92.80;;;;;;5018834;28;20115;-56
2022/05/28 11:29:53;;;;;;;10.77;3.13;;;18.00;93.70;;;;;;4974875;28;20061;-56
2022/05/28 11:32:33;;;;;;;7.18;3.05;;;18.20;93.90;;;;;;5018473;28;20365;-57
2022/05/28 11:35:26;;;;;;;6.95;3.53;;;18.50;90.50;;;;;;5019281;28;20046;-57
2022/05/28 11:38:08;;;;;;;7.07;2.92;;;18.70;85.50;;;;;;5017962;28;20889;-56
2022/05/28 11:40:59;;;;;;;11.80;3.95;;;18.80;90.60;;;;;;5022780;28;20483;-58
2022/05/28 11:43:40;;;;;;;5.63;2.92;;;18.80;90.20;;;;;;5038137;28;20083;-58
2022/05/28 11:46:23;;;;;;;7.43;2.88;;;18.90;91.30;;;;;;5039129;28;20045;-58
2022/05/28 11:51:53;;;;;;;4.32;2.65;;;19.50;86.50;;;;;;5018470;28;20045;-59
2022/05/28 11:54:28;;;;;;;6.70;2.50;;;19.80;86.90;;;;;;5018250;28;20046;-57
2022/05/28 11:57:01;;;;;;;4.93;2.38;;;19.90;80.50;;;;;;5018252;28;20054;-57
2022/05/28 11:59:29;;;;;;;6.72;3.00;;;20.10;83.40;;;;;;5018431;28;20045;-58
2022/05/28 12:02:04;;;;;;;5.22;2.58;;;20.30;79.00;;;;;;5018444;28;20605;-57
2022/05/28 12:04:31;;;;;;;12.38;2.90;;;20.40;80.60;;;;;;5027614;28;20737;-58
2022/05/28 12:07:09;;;;;;;8.77;3.55;;;20.60;70.40;;;;;;5036628;28;20538;-57
2022/05/28 12:09:43;;;;;;;5.63;2.40;;;20.70;69.40;;;;;;5039012;28;20143;-58
2022/05/28 12:12:38;;;;;;;6.97;2.35;;;20.80;70.20;;;;;;5036666;28;20471;-57
2022/05/28 12:15:24;;;;;;;8.98;2.28;;;20.80;64.80;;;;;;5037988;28;20044;-57
2022/05/28 12:18:04;;;;;;;3.95;2.10;;;21.00;60.00;;;;;;5036571;28;20033;-57
2022/05/28 12:20:35;;;;;;;6.75;2.88;;;21.00;59.40;;;;;;5037197;28;20044;-57
2022/05/28 12:23:04;;;;;;;8.02;2.80;;;21.10;62.10;;;;;;5012528;28;20045;-58
2022/05/28 12:25:37;;;;;;;5.13;2.38;;;21.20;60.40;;;;;;4985730;28;20052;-57
2022/05/28 12:28:22;;;;;;;7.93;3.10;;;21.30;58.40;;;;;;4987766;28;20592;-59
2022/05/28 12:30:51;;;;;;;3.45;2.25;;;21.40;64.30;;;;;;4989420;28;20087;-58
2022/05/28 12:33:33;;;;;;;9.23;2.95;;;21.40;60.80;;;;;;4988417;28;20045;-59
2022/05/28 12:36:20;;;;;;;9.52;2.55;;;21.30;57.20;;;;;;4984574;28;20598;-62
2022/05/28 12:39:25;;;;;;;7.80;2.77;;;21.10;60.20;;;;;;4984934;28;20044;-57
2022/05/28 12:42:02;;;;;;;5.70;2.55;;;21.00;61.50;;;;;;4976505;28;20142;-57
2022/05/28 12:44:30;;;;;;;9.23;2.90;;;20.80;61.30;;;;;;4985359;28;20653;-56
2022/05/28 12:46:59;;;;;;;4.88;2.75;;;20.70;61.80;;;;;;4987106;28;20795;-56
2022/05/28 12:49:43;;;;;;;6.65;2.53;;;20.40;62.40;;;;;;4966850;28;20136;-58
2022/05/28 12:52:25;;;;;;;6.45;3.08;;;20.30;61.20;;;;;;4965139;28;20046;-57
2022/05/28 12:55:28;;;;;;;6.93;2.58;;;20.10;62.30;;;;;;4965335;28;20044;-57
2022/05/28 12:58:08;;;;;;;12.43;3.33;;;19.80;62.60;;;;;;4968936;28;20213;-57
2022/05/28 13:00:44;;;;;;;10.75;3.50;;;19.60;66.20;;;;;;5009991;28;20037;-57
2022/05/28 13:03:15;;;;;;;10.35;3.08;;;19.40;67.50;;;;;;5034174;28;20044;-56
2022/05/28 13:05:47;;;;;;;7.30;2.80;;;19.40;64.70;;;;;;4987092;28;20044;-57
2022/05/28 13:08:25;;;;;;;8.23;2.88;;;19.30;65.50;;;;;;4979828;28;21016;-58
2022/05/28 13:11:05;;;;;;;8.23;3.20;;;19.40;64.10;;;;;;4983312;28;20118;-57
2022/05/28 13:13:54;;;;;;;4.50;2.63;;;19.50;67.80;;;;;;4972497;28;20632;-58
2022/05/28 13:16:49;;;;;;;5.75;2.78;;;19.60;67.80;;;;;;4986642;28;20056;-61
2022/05/28 13:19:28;;;;;;;5.80;2.72;;;19.60;65.10;;;;;;4983767;28;20193;-57
2022/05/28 13:22:25;;;;;;;13.60;3.08;;;19.50;66.00;;;;;;4988150;28;20037;-57
2022/05/28 13:25:05;;;;;;;9.35;3.47;;;19.30;66.70;;;;;;4987662;28;20029;-58
2022/05/28 13:27:53;;;;;;;9.88;3.22;;;19.20;67.80;;;;;;5024947;28;20118;-56
2022/05/28 13:30:31;;;;;;;9.20;3.10;;;19.10;69.00;;;;;;5030506;28;20550;-58
2022/05/28 13:33:06;;;;;;;6.65;3.50;;;19.10;68.40;;;;;;5032410;28;20060;-57
2022/05/28 13:35:41;;;;;;;9.30;3.13;;;19.10;67.50;;;;;;5033649;28;20047;-57
2022/05/28 13:38:09;;;;;;;10.05;2.63;;;19.10;66.30;;;;;;5031685;28;20079;-59